Time;durP1;ratioP1;P1;durP2;ratioP2;P2;SDS_P1;SDS_P2;PMS_P1;PMS_P2;Temp;Humidity;BMP_temperature;BMP_pressure;BME280_temperature;BME280_humidity;BME280_pressure;Samples;Min_cycle;Max_cycle;Signal;HPM_P1;HPM_P2
2019/06/01 00:00:52;;;;;;;1.55;1.34;;;;;;;20.47;50.44;101261.14;;;;-60
2019/06/01 00:03:52;;;;;;;1.50;1.40;;;;;;;20.48;50.36;101264.07;;;;-60
2019/06/01 00:06:52;;;;;;;2.48;1.50;;;;;;;20.47;50.43;101264.29;;;;-60
2019/06/01 00:09:52;;;;;;;2.22;1.38;;;;;;;20.47;50.44;101260.43;;;;-60
2019/06/01 00:12:52;;;;;;;1.51;1.40;;;;;;;20.46;50.45;101254.45;;;;-59
2019/06/01 00:15:52;;;;;;;1.70;1.40;;;;;;;20.46;50.44;101257.97;;;;-60
2019/06/01 00:18:52;;;;;;;1.80;1.45;;;;;;;20.46;50.38;101255.84;;;;-60
2019/06/01 00:21:52;;;;;;;1.51;1.40;;;;;;;20.45;50.41;101252.71;;;;-60
2019/06/01 00:24:52;;;;;;;2.19;1.42;;;;;;;20.45;50.43;101248.85;;;;-60
2019/06/01 00:27:52;;;;;;;1.45;1.35;;;;;;;20.45;50.42;101250.36;;;;-60
2019/06/01 00:30:53;;;;;;;1.75;1.30;;;;;;;20.45;50.43;101249.18;;;;-60
2019/06/01 00:33:52;;;;;;;1.99;1.40;;;;;;;20.44;50.40;101243.16;;;;-60
2019/06/01 00:36:52;;;;;;;2.28;1.55;;;;;;;20.45;50.45;101244.98;;;;-60
2019/06/01 00:39:52;;;;;;;1.88;1.39;;;;;;;20.45;50.40;101249.02;;;;-60
2019/06/01 00:42:52;;;;;;;2.08;1.50;;;;;;;20.44;50.42;101245.10;;;;-59
2019/06/01 00:45:52;;;;;;;1.79;1.36;;;;;;;20.44;50.38;101249.12;;;;-60
2019/06/01 00:48:52;;;;;;;1.77;1.43;;;;;;;20.44;50.38;101249.64;;;;-60
2019/06/01 00:51:53;;;;;;;1.76;1.35;;;;;;;20.43;50.43;101247.47;;;;-59
2019/06/01 00:54:52;;;;;;;1.50;1.37;;;;;;;20.43;50.35;101245.16;;;;-60
2019/06/01 00:57:52;;;;;;;1.73;1.37;;;;;;;20.43;50.39;101242.60;;;;-60
2019/06/01 01:00:52;;;;;;;1.53;1.35;;;;;;;20.43;50.39;101240.69;;;;-60
2019/06/01 01:03:52;;;;;;;1.63;1.30;;;;;;;20.42;50.37;101237.39;;;;-60
2019/06/01 01:06:52;;;;;;;1.67;1.46;;;;;;;20.41;50.35;101233.31;;;;-59
2019/06/01 01:09:53;;;;;;;1.75;1.48;;;;;;;20.42;50.37;101233.26;;;;-60
2019/06/01 01:13:13;;;;;;;1.47;1.37;;;;;;;20.42;50.36;101235.88;;;;-60
2019/06/01 01:15:52;;;;;;;1.65;1.39;;;;;;;20.42;50.33;101238.13;;;;-60
2019/06/01 01:18:52;;;;;;;1.31;1.20;;;;;;;20.41;50.38;101238.17;;;;-60
2019/06/01 01:21:52;;;;;;;1.47;1.37;;;;;;;20.41;50.39;101237.30;;;;-61
2019/06/01 01:24:52;;;;;;;2.26;1.40;;;;;;;20.41;50.34;101233.03;;;;-59
2019/06/01 01:27:52;;;;;;;1.51;1.30;;;;;;;20.41;50.38;101234.88;;;;-59
2019/06/01 01:30:52;;;;;;;1.58;1.41;;;;;;;20.40;50.30;101237.69;;;;-60
2019/06/01 01:33:52;;;;;;;1.51;1.41;;;;;;;20.40;50.35;101234.94;;;;-59
2019/06/01 01:36:52;;;;;;;1.49;1.39;;;;;;;20.40;50.32;101238.01;;;;-60
2019/06/01 01:39:53;;;;;;;1.69;1.40;;;;;;;20.41;50.34;101245.78;;;;-60
2019/06/01 01:42:52;;;;;;;1.60;1.40;;;;;;;20.40;50.32;101239.19;;;;-60
2019/06/01 01:45:52;;;;;;;1.65;1.40;;;;;;;20.40;50.37;101240.20;;;;-59
2019/06/01 01:48:53;;;;;;;1.42;1.29;;;;;;;20.40;50.34;101235.90;;;;-60
2019/06/01 01:51:52;;;;;;;1.46;1.33;;;;;;;20.40;50.34;101232.65;;;;-60
2019/06/01 01:54:52;;;;;;;1.46;1.36;;;;;;;20.39;50.35;101235.55;;;;-60
2019/06/01 01:57:53;;;;;;;1.36;1.26;;;;;;;20.39;50.37;101238.63;;;;-60
2019/06/01 02:00:52;;;;;;;1.51;1.39;;;;;;;20.39;50.36;101237.23;;;;-60
2019/06/01 02:03:52;;;;;;;1.57;1.34;;;;;;;20.39;50.39;101234.20;;;;-60
2019/06/01 02:06:52;;;;;;;1.66;1.41;;;;;;;20.39;50.37;101237.39;;;;-59
2019/06/01 02:09:52;;;;;;;2.23;1.51;;;;;;;20.38;50.36;101232.98;;;;-60
2019/06/01 02:12:53;;;;;;;1.86;1.48;;;;;;;20.39;50.33;101231.41;;;;-60
2019/06/01 02:15:52;;;;;;;1.50;1.40;;;;;;;20.38;50.33;101233.21;;;;-60
2019/06/01 02:18:53;;;;;;;1.46;1.36;;;;;;;20.38;50.35;101229.95;;;;-59
2019/06/01 02:21:52;;;;;;;1.43;1.33;;;;;;;20.38;50.31;101230.19;;;;-60
2019/06/01 02:24:52;;;;;;;1.46;1.35;;;;;;;20.37;50.37;101229.47;;;;-60
2019/06/01 02:27:52;;;;;;;1.45;1.35;;;;;;;20.37;50.36;101230.31;;;;-60
2019/06/01 02:30:52;;;;;;;1.46;1.36;;;;;;;20.38;50.42;101228.69;;;;-59
2019/06/01 02:33:52;;;;;;;1.40;1.30;;;;;;;20.36;50.37;101226.16;;;;-60
2019/06/01 02:36:53;;;;;;;1.53;1.40;;;;;;;20.37;50.38;101224.10;;;;-60
2019/06/01 02:39:52;;;;;;;1.53;1.33;;;;;;;20.37;50.37;101225.38;;;;-59
2019/06/01 02:42:53;;;;;;;1.83;1.45;;;;;;;20.37;50.40;101220.00;;;;-60
2019/06/01 02:45:52;;;;;;;1.59;1.40;;;;;;;20.36;50.34;101219.35;;;;-60
2019/06/01 02:48:53;;;;;;;1.48;1.38;;;;;;;20.36;50.38;101219.29;;;;-60
2019/06/01 02:51:52;;;;;;;1.48;1.38;;;;;;;20.36;50.37;101217.00;;;;-60
2019/06/01 02:54:52;;;;;;;1.39;1.29;;;;;;;20.35;50.33;101218.90;;;;-60
2019/06/01 02:57:52;;;;;;;1.84;1.47;;;;;;;20.36;50.38;101224.88;;;;-60
2019/06/01 03:00:52;;;;;;;1.43;1.33;;;;;;;20.35;50.35;101224.50;;;;-60
2019/06/01 03:03:52;;;;;;;1.50;1.40;;;;;;;20.35;50.34;101223.93;;;;-60
2019/06/01 03:06:52;;;;;;;1.36;1.26;;;;;;;20.36;50.36;101226.49;;;;-60
2019/06/01 03:09:53;;;;;;;1.47;1.37;;;;;;;20.36;50.33;101230.87;;;;-59
2019/06/01 03:12:52;;;;;;;1.40;1.30;;;;;;;20.36;50.35;101232.53;;;;-60
2019/06/01 03:15:52;;;;;;;1.42;1.32;;;;;;;20.35;50.37;101232.05;;;;-60
2019/06/01 03:18:52;;;;;;;1.50;1.40;;;;;;;20.35;50.39;101232.81;;;;-60
2019/06/01 03:21:53;;;;;;;1.39;1.29;;;;;;;20.35;50.35;101226.33;;;;-60
2019/06/01 03:24:52;;;;;;;1.66;1.56;;;;;;;20.35;50.37;101225.84;;;;-59
2019/06/01 03:27:52;;;;;;;1.59;1.38;;;;;;;20.35;50.40;101221.07;;;;-60
2019/06/01 03:30:52;;;;;;;1.50;1.40;;;;;;;20.35;50.35;101219.97;;;;-60
2019/06/01 03:33:52;;;;;;;1.63;1.41;;;;;;;20.35;50.36;101219.73;;;;-60
2019/06/01 03:36:52;;;;;;;1.48;1.38;;;;;;;20.35;50.37;101218.39;;;;-60
2019/06/01 03:39:52;;;;;;;1.57;1.47;;;;;;;20.34;50.39;101222.19;;;;-60
2019/06/01 03:42:53;;;;;;;1.67;1.39;;;;;;;20.34;50.40;101220.25;;;;-60
2019/06/01 03:45:52;;;;;;;1.40;1.30;;;;;;;20.34;50.42;101215.38;;;;-60
2019/06/01 03:48:52;;;;;;;1.40;1.30;;;;;;;20.34;50.34;101222.37;;;;-60
2019/06/01 03:51:52;;;;;;;1.50;1.40;;;;;;;20.34;50.37;101219.51;;;;-60
2019/06/01 03:54:52;;;;;;;1.43;1.33;;;;;;;20.34;50.34;101217.83;;;;-60
2019/06/01 03:57:52;;;;;;;2.20;1.34;;;;;;;20.34;50.41;101219.08;;;;-59
2019/06/01 04:00:52;;;;;;;1.44;1.30;;;;;;;20.34;50.35;101207.33;;;;-60
2019/06/01 04:03:52;;;;;;;1.43;1.33;;;;;;;20.35;50.35;101210.41;;;;-60
2019/06/01 04:06:52;;;;;;;1.40;1.30;;;;;;;20.35;50.41;101211.02;;;;-60
2019/06/01 04:09:52;;;;;;;1.41;1.31;;;;;;;20.35;50.36;101214.44;;;;-60
2019/06/01 04:12:52;;;;;;;1.55;1.29;;;;;;;20.36;50.29;101213.75;;;;-60
2019/06/01 04:15:52;;;;;;;1.44;1.34;;;;;;;20.37;50.41;101215.81;;;;-60
2019/06/01 04:18:52;;;;;;;1.47;1.37;;;;;;;20.37;50.32;101218.67;;;;-60
2019/06/01 04:21:52;;;;;;;1.40;1.30;;;;;;;20.38;50.33;101218.21;;;;-59
2019/06/01 04:24:52;;;;;;;1.40;1.30;;;;;;;20.38;50.40;101216.70;;;;-59
2019/06/01 04:27:53;;;;;;;1.57;1.47;;;;;;;20.38;50.36;101216.87;;;;-60
2019/06/01 04:30:52;;;;;;;1.49;1.38;;;;;;;20.39;50.37;101215.75;;;;-60
2019/06/01 04:33:52;;;;;;;1.49;1.39;;;;;;;20.39;50.30;101214.47;;;;-60
2019/06/01 04:36:52;;;;;;;1.47;1.37;;;;;;;20.40;50.33;101216.03;;;;-59
2019/06/01 04:39:52;;;;;;;1.50;1.40;;;;;;;20.40;50.32;101217.38;;;;-59
2019/06/01 04:42:53;;;;;;;1.41;1.30;;;;;;;20.40;50.33;101223.36;;;;-60
2019/06/01 04:45:52;;;;;;;1.40;1.30;;;;;;;20.41;50.22;101222.63;;;;-59
2019/06/01 04:48:52;;;;;;;1.47;1.37;;;;;;;20.41;50.32;101220.18;;;;-60
2019/06/01 04:51:52;;;;;;;1.44;1.34;;;;;;;20.41;50.30;101221.90;;;;-60
2019/06/01 04:54:52;;;;;;;1.49;1.39;;;;;;;20.42;50.31;101220.91;;;;-60
2019/06/01 04:57:52;;;;;;;1.40;1.30;;;;;;;20.42;50.31;101220.66;;;;-60
2019/06/01 05:00:52;;;;;;;1.32;1.22;;;;;;;20.42;50.32;101225.19;;;;-60
2019/06/01 05:03:52;;;;;;;1.56;1.46;;;;;;;20.42;50.34;101225.87;;;;-59
2019/06/01 05:06:52;;;;;;;1.40;1.30;;;;;;;20.42;50.39;101229.34;;;;-60
2019/06/01 05:09:52;;;;;;;1.48;1.38;;;;;;;20.43;50.29;101227.67;;;;-60
2019/06/01 05:12:52;;;;;;;1.40;1.30;;;;;;;20.42;50.31;101231.19;;;;-60
2019/06/01 05:15:52;;;;;;;1.37;1.27;;;;;;;20.42;50.25;101236.38;;;;-59
2019/06/01 05:18:52;;;;;;;1.43;1.33;;;;;;;20.43;50.31;101243.55;;;;-60
2019/06/01 05:21:52;;;;;;;1.41;1.24;;;;;;;20.43;50.36;101248.64;;;;-60
2019/06/01 05:24:52;;;;;;;1.40;1.30;;;;;;;20.43;50.25;101250.59;;;;-60
2019/06/01 05:27:52;;;;;;;1.35;1.25;;;;;;;20.43;50.25;101247.74;;;;-60
2019/06/01 05:30:52;;;;;;;1.45;1.35;;;;;;;20.43;50.26;101248.34;;;;-60
2019/06/01 05:33:52;;;;;;;5.19;1.41;;;;;;;20.45;50.47;101246.83;;;;-61
2019/06/01 05:36:52;;;;;;;2.07;1.30;;;;;;;20.46;50.59;101247.22;;;;-61
2019/06/01 05:39:52;;;;;;;1.44;1.29;;;;;;;20.47;50.60;101249.19;;;;-60
2019/06/01 05:42:52;;;;;;;3.24;1.47;;;;;;;20.49;50.68;101249.36;;;;-60
2019/06/01 05:45:52;;;;;;;1.65;1.30;;;;;;;20.51;50.64;101247.11;;;;-62
2019/06/01 05:48:52;;;;;;;2.01;1.35;;;;;;;20.51;50.63;101245.92;;;;-61
2019/06/01 05:51:52;;;;;;;1.86;1.51;;;;;;;20.52;50.61;101247.67;;;;-63
2019/06/01 05:54:52;;;;;;;1.66;1.33;;;;;;;20.52;50.45;101249.02;;;;-63
2019/06/01 05:57:52;;;;;;;1.47;1.37;;;;;;;20.51;50.36;101252.63;;;;-63
2019/06/01 06:00:52;;;;;;;1.97;1.40;;;;;;;20.51;50.45;101251.08;;;;-63
2019/06/01 06:03:52;;;;;;;2.71;1.40;;;;;;;20.50;50.37;101252.41;;;;-63
2019/06/01 06:06:52;;;;;;;1.67;1.50;;;;;;;20.50;50.52;101250.75;;;;-63
2019/06/01 06:09:52;;;;;;;1.80;1.49;;;;;;;20.50;50.34;101253.77;;;;-63
2019/06/01 06:12:52;;;;;;;2.59;1.50;;;;;;;20.49;50.36;101248.22;;;;-64
2019/06/01 06:15:52;;;;;;;1.50;1.40;;;;;;;20.49;50.37;101252.25;;;;-64
2019/06/01 06:18:52;;;;;;;1.89;1.50;;;;;;;20.49;50.42;101256.17;;;;-63
2019/06/01 06:21:52;;;;;;;1.50;1.40;;;;;;;20.49;50.32;101257.06;;;;-63
2019/06/01 06:24:53;;;;;;;1.51;1.40;;;;;;;20.49;50.38;101254.22;;;;-63
2019/06/01 06:27:52;;;;;;;1.54;1.41;;;;;;;20.48;50.36;101256.30;;;;-52
2019/06/01 06:30:53;;;;;;;2.15;1.51;;;;;;;20.48;50.31;101258.08;;;;-51
2019/06/01 06:33:52;;;;;;;1.47;1.37;;;;;;;20.49;50.28;101257.58;;;;-63
2019/06/01 06:36:52;;;;;;;1.59;1.49;;;;;;;20.48;50.33;101255.89;;;;-63
2019/06/01 06:39:52;;;;;;;1.49;1.39;;;;;;;20.48;50.35;101254.34;;;;-53
2019/06/01 06:42:52;;;;;;;1.57;1.43;;;;;;;20.48;50.36;101253.55;;;;-52
2019/06/01 06:45:52;;;;;;;2.15;1.45;;;;;;;20.48;50.32;101254.11;;;;-52
2019/06/01 06:48:52;;;;;;;1.51;1.30;;;;;;;20.48;50.35;101250.86;;;;-62
2019/06/01 06:51:52;;;;;;;1.77;1.41;;;;;;;20.47;50.33;101254.39;;;;-51
2019/06/01 06:54:52;;;;;;;1.53;1.30;;;;;;;20.47;50.27;101253.05;;;;-53
2019/06/01 06:57:52;;;;;;;2.43;1.54;;;;;;;20.47;50.67;101252.15;;;;-51
2019/06/01 07:00:52;;;;;;;2.33;1.51;;;;;;;20.49;50.91;101252.66;;;;-52
2019/06/01 07:03:53;;;;;;;6.27;1.68;;;;;;;20.50;51.01;101253.92;;;;-51
2019/06/01 07:06:52;;;;;;;1.73;1.44;;;;;;;20.53;51.06;101258.91;;;;-49
2019/06/01 07:09:53;;;;;;;2.36;1.39;;;;;;;20.53;51.05;101257.27;;;;-50
2019/06/01 07:12:52;;;;;;;2.00;1.40;;;;;;;20.55;51.10;101251.52;;;;-51
2019/06/01 07:15:52;;;;;;;3.93;1.61;;;;;;;20.57;51.00;101254.08;;;;-53
2019/06/01 07:18:52;;;;;;;1.65;1.39;;;;;;;20.58;50.82;101254.41;;;;-52
2019/06/01 07:21:52;;;;;;;1.97;1.50;;;;;;;20.58;50.84;101254.14;;;;-53
2019/06/01 07:24:52;;;;;;;2.72;1.58;;;;;;;20.57;50.75;101249.56;;;;-53
2019/06/01 07:27:52;;;;;;;2.03;1.50;;;;;;;20.58;50.73;101248.44;;;;-52
2019/06/01 07:30:52;;;;;;;1.53;1.41;;;;;;;20.58;50.69;101245.68;;;;-52
2019/06/01 07:33:52;;;;;;;1.62;1.40;;;;;;;20.58;50.63;101246.41;;;;-53
2019/06/01 07:36:52;;;;;;;2.14;1.50;;;;;;;20.57;50.65;101239.75;;;;-52
2019/06/01 07:39:52;;;;;;;1.83;1.57;;;;;;;20.58;50.57;101238.19;;;;-52
2019/06/01 07:42:52;;;;;;;1.67;1.50;;;;;;;20.57;50.58;101237.07;;;;-61
2019/06/01 07:45:52;;;;;;;3.99;1.63;;;;;;;20.57;50.57;101233.95;;;;-58
2019/06/01 07:48:53;;;;;;;1.69;1.53;;;;;;;20.58;50.54;101239.53;;;;-60
2019/06/01 07:51:52;;;;;;;1.63;1.40;;;;;;;20.58;50.47;101238.42;;;;-61
2019/06/01 07:54:52;;;;;;;1.48;1.36;;;;;;;20.58;50.47;101237.69;;;;-52
2019/06/01 07:57:52;;;;;;;1.60;1.41;;;;;;;20.57;50.46;101235.73;;;;-52
2019/06/01 08:00:52;;;;;;;1.72;1.40;;;;;;;20.57;50.46;101230.42;;;;-52
2019/06/01 08:03:52;;;;;;;2.57;1.44;;;;;;;20.56;50.46;101231.89;;;;-52
2019/06/01 08:06:52;;;;;;;1.98;1.39;;;;;;;20.57;50.40;101236.02;;;;-52
2019/06/01 08:09:52;;;;;;;3.27;1.36;;;;;;;20.58;50.67;101232.66;;;;-59
2019/06/01 08:12:52;;;;;;;2.45;1.53;;;;;;;20.59;50.71;101230.52;;;;-60
2019/06/01 08:15:52;;;;;;;4.39;1.58;;;;;;;20.59;50.61;101227.16;;;;-60
2019/06/01 08:18:52;;;;;;;2.27;1.50;;;;;;;20.59;50.60;101227.67;;;;-59
2019/06/01 08:21:52;;;;;;;4.05;1.60;;;;;;;20.60;50.77;101230.97;;;;-55
2019/06/01 08:24:52;;;;;;;2.79;1.61;;;;;;;20.59;50.70;101225.09;;;;-60
2019/06/01 08:27:52;;;;;;;3.17;1.60;;;;;;;20.62;50.72;101225.64;;;;-59
2019/06/01 08:30:52;;;;;;;3.76;1.55;;;;;;;20.62;50.75;101221.51;;;;-54
2019/06/01 08:33:53;;;;;;;4.12;1.56;;;;;;;20.64;50.91;101222.12;;;;-62
2019/06/01 08:36:52;;;;;;;4.87;1.50;;;;;;;20.65;51.05;101223.84;;;;-63
2019/06/01 08:39:52;;;;;;;3.22;1.56;;;;;;;20.65;51.08;101220.16;;;;-61
2019/06/01 08:42:52;;;;;;;3.14;1.53;;;;;;;20.65;51.06;101212.89;;;;-51
2019/06/01 08:45:52;;;;;;;4.75;1.81;;;;;;;20.67;50.97;101208.79;;;;-53
2019/06/01 08:48:52;;;;;;;4.05;1.59;;;;;;;20.68;50.98;101205.38;;;;-52
2019/06/01 08:51:52;;;;;;;2.48;1.49;;;;;;;20.69;50.90;101198.38;;;;-51
2019/06/01 08:54:52;;;;;;;3.31;1.53;;;;;;;20.71;50.92;101201.50;;;;-53
2019/06/01 08:57:52;;;;;;;3.56;1.51;;;;;;;20.72;50.93;101197.35;;;;-52
2019/06/01 09:00:52;;;;;;;2.48;1.40;;;;;;;20.73;50.86;101196.73;;;;-53
2019/06/01 09:03:52;;;;;;;5.18;1.60;;;;;;;20.74;50.84;101195.10;;;;-52
2019/06/01 09:06:52;;;;;;;3.09;1.57;;;;;;;20.74;50.88;101198.58;;;;-54
2019/06/01 09:09:52;;;;;;;2.73;1.66;;;;;;;20.75;50.92;101193.38;;;;-51
2019/06/01 09:12:52;;;;;;;2.09;1.47;;;;;;;20.76;50.82;101191.96;;;;-53
2019/06/01 09:15:52;;;;;;;2.07;1.50;;;;;;;20.76;50.85;101191.02;;;;-53
2019/06/01 09:18:52;;;;;;;1.99;1.31;;;;;;;20.77;50.88;101191.47;;;;-51
2019/06/01 09:21:52;;;;;;;3.01;1.50;;;;;;;20.78;50.91;101186.42;;;;-53
2019/06/01 09:24:52;;;;;;;3.33;1.50;;;;;;;20.79;50.88;101187.30;;;;-53
2019/06/01 09:27:52;;;;;;;3.34;1.52;;;;;;;20.79;50.85;101184.05;;;;-54
2019/06/01 09:30:52;;;;;;;2.75;1.51;;;;;;;20.80;50.72;101186.28;;;;-54
2019/06/01 09:33:52;;;;;;;2.73;1.45;;;;;;;20.80;50.83;101189.30;;;;-54
2019/06/01 09:36:52;;;;;;;1.85;1.48;;;;;;;20.81;50.79;101193.42;;;;-57
2019/06/01 09:39:52;;;;;;;2.25;1.50;;;;;;;20.81;50.82;101188.79;;;;-57
2019/06/01 09:42:52;;;;;;;2.80;1.68;;;;;;;20.81;50.91;101181.73;;;;-54
2019/06/01 09:45:52;;;;;;;1.89;1.47;;;;;;;20.83;50.83;101182.97;;;;-55
2019/06/01 09:48:52;;;;;;;3.42;1.50;;;;;;;20.83;50.80;101186.54;;;;-53
2019/06/01 09:51:52;;;;;;;2.37;1.43;;;;;;;20.83;50.83;101180.79;;;;-52
2019/06/01 09:54:52;;;;;;;2.90;1.38;;;;;;;20.83;50.86;101183.63;;;;-54
2019/06/01 09:57:52;;;;;;;2.72;1.50;;;;;;;20.84;50.80;101180.95;;;;-56
2019/06/01 10:00:53;;;;;;;3.73;1.55;;;;;;;20.85;50.66;101176.02;;;;-52
2019/06/01 10:03:52;;;;;;;4.83;1.59;;;;;;;20.82;50.71;101179.20;;;;-52
2019/06/01 10:06:52;;;;;;;2.65;1.40;;;;;;;20.82;50.76;101175.68;;;;-52
2019/06/01 10:09:52;;;;;;;2.73;1.60;;;;;;;20.82;50.77;101174.53;;;;-53
2019/06/01 10:12:52;;;;;;;2.43;1.63;;;;;;;20.81;50.72;101176.36;;;;-53
2019/06/01 10:15:52;;;;;;;3.47;1.57;;;;;;;20.80;50.73;101173.80;;;;-53
2019/06/01 10:18:52;;;;;;;2.53;1.63;;;;;;;20.79;50.66;101168.66;;;;-53
2019/06/01 10:21:52;;;;;;;5.99;1.59;;;;;;;20.79;50.65;101172.53;;;;-53
2019/06/01 10:24:52;;;;;;;4.90;1.49;;;;;;;20.78;50.58;101167.78;;;;-53
2019/06/01 10:27:52;;;;;;;4.01;1.50;;;;;;;20.79;50.59;101167.27;;;;-53
2019/06/01 10:30:52;;;;;;;2.82;1.49;;;;;;;20.79;50.61;101167.67;;;;-54
2019/06/01 10:33:52;;;;;;;2.08;1.45;;;;;;;20.79;50.56;101162.30;;;;-53
2019/06/01 10:36:52;;;;;;;4.95;1.72;;;;;;;20.81;50.66;101162.05;;;;-52
2019/06/01 10:39:52;;;;;;;3.11;1.58;;;;;;;20.79;50.69;101160.62;;;;-53
2019/06/01 10:42:52;;;;;;;5.11;1.85;;;;;;;20.78;50.73;101158.83;;;;-51
2019/06/01 10:45:53;;;;;;;3.17;1.73;;;;;;;20.77;50.69;101157.43;;;;-51
2019/06/01 10:48:52;;;;;;;3.11;1.76;;;;;;;20.77;50.71;101154.37;;;;-52
2019/06/01 10:51:52;;;;;;;4.91;1.61;;;;;;;20.76;50.66;101153.75;;;;-52
2019/06/01 10:54:52;;;;;;;3.89;1.64;;;;;;;20.76;50.62;101152.30;;;;-52
2019/06/01 10:57:52;;;;;;;3.33;1.69;;;;;;;20.75;50.63;101144.70;;;;-51
2019/06/01 11:00:52;;;;;;;3.75;1.47;;;;;;;20.74;50.59;101143.98;;;;-52
2019/06/01 11:03:52;;;;;;;2.71;1.54;;;;;;;20.73;50.52;101139.60;;;;-51
2019/06/01 11:06:52;;;;;;;3.37;1.61;;;;;;;20.73;50.56;101137.25;;;;-52
2019/06/01 11:09:52;;;;;;;2.61;1.56;;;;;;;20.72;50.50;101134.02;;;;-52
2019/06/01 11:12:52;;;;;;;3.73;1.60;;;;;;;20.73;50.49;101133.86;;;;-52
2019/06/01 11:15:52;;;;;;;3.81;1.52;;;;;;;20.71;50.48;101125.58;;;;-52
2019/06/01 11:18:52;;;;;;;4.19;1.51;;;;;;;20.70;50.50;101123.50;;;;-52
2019/06/01 11:21:52;;;;;;;3.63;1.55;;;;;;;20.70;50.51;101125.25;;;;-54
2019/06/01 11:24:52;;;;;;;2.60;1.55;;;;;;;20.70;50.49;101127.86;;;;-53
2019/06/01 11:27:52;;;;;;;2.18;1.50;;;;;;;20.70;50.48;101128.53;;;;-54
2019/06/01 11:30:52;;;;;;;2.62;1.50;;;;;;;20.69;50.45;101125.20;;;;-53
2019/06/01 11:33:52;;;;;;;1.85;1.40;;;;;;;20.69;50.44;101123.11;;;;-54
2019/06/01 11:36:52;;;;;;;2.27;1.50;;;;;;;20.68;50.37;101118.36;;;;-54
2019/06/01 11:39:52;;;;;;;2.78;1.50;;;;;;;20.69;50.41;101116.80;;;;-54
2019/06/01 11:42:52;;;;;;;2.59;1.54;;;;;;;20.68;50.39;101108.52;;;;-54
2019/06/01 11:45:52;;;;;;;3.80;1.50;;;;;;;20.67;50.40;101106.47;;;;-54
2019/06/01 11:48:53;;;;;;;3.79;1.40;;;;;;;20.67;50.37;101100.42;;;;-54
2019/06/01 11:51:52;;;;;;;3.08;1.47;;;;;;;20.67;50.33;101099.41;;;;-54
2019/06/01 11:54:52;;;;;;;3.33;1.58;;;;;;;20.66;50.35;101095.00;;;;-54
2019/06/01 11:57:52;;;;;;;1.68;1.40;;;;;;;20.67;50.37;101095.21;;;;-54
2019/06/01 12:00:52;;;;;;;2.73;1.50;;;;;;;20.65;50.35;101088.68;;;;-53
2019/06/01 12:03:52;;;;;;;1.57;1.45;;;;;;;20.65;50.33;101089.01;;;;-54
2019/06/01 12:06:52;;;;;;;1.53;1.39;;;;;;;20.65;50.33;101085.33;;;;-60
2019/06/01 12:09:52;;;;;;;2.07;1.46;;;;;;;20.65;50.34;101081.63;;;;-60
2019/06/01 12:12:52;;;;;;;2.79;1.45;;;;;;;20.65;50.37;101079.84;;;;-54
2019/06/01 12:15:52;;;;;;;6.06;1.56;;;;;;;20.65;50.41;101060.31;;;;-55
2019/06/01 12:18:52;;;;;;;5.97;1.45;;;;;;;20.69;50.41;101064.87;;;;-57
2019/06/01 12:21:52;;;;;;;3.03;1.48;;;;;;;20.71;50.83;101061.00;;;;-56
2019/06/01 12:24:52;;;;;;;3.27;1.71;;;;;;;20.70;50.57;101057.59;;;;-57
2019/06/01 12:27:52;;;;;;;2.75;1.63;;;;;;;20.69;50.67;101055.80;;;;-53
2019/06/01 12:30:52;;;;;;;3.71;1.61;;;;;;;20.68;50.73;101055.43;;;;-62
2019/06/01 12:33:52;;;;;;;2.27;1.61;;;;;;;20.68;50.77;101056.50;;;;-53
2019/06/01 12:36:52;;;;;;;2.45;1.48;;;;;;;20.68;50.74;101050.05;;;;-53
2019/06/01 12:39:52;;;;;;;2.17;1.55;;;;;;;20.67;50.65;101046.64;;;;-53
2019/06/01 12:42:52;;;;;;;1.80;1.49;;;;;;;20.67;50.65;101044.53;;;;-53
2019/06/01 12:45:52;;;;;;;2.90;1.65;;;;;;;20.67;50.63;101045.70;;;;-53
2019/06/01 12:48:52;;;;;;;3.07;1.55;;;;;;;20.66;50.62;101042.14;;;;-52
2019/06/01 12:51:52;;;;;;;2.83;1.53;;;;;;;20.66;50.60;101033.74;;;;-52
2019/06/01 12:54:52;;;;;;;4.14;1.68;;;;;;;20.66;50.56;101034.34;;;;-52
2019/06/01 12:57:52;;;;;;;3.49;1.56;;;;;;;20.66;50.63;101034.41;;;;-53
2019/06/01 13:00:52;;;;;;;3.47;1.72;;;;;;;20.67;50.71;101029.20;;;;-53
2019/06/01 13:03:52;;;;;;;3.82;1.68;;;;;;;20.69;50.76;101024.16;;;;-54
2019/06/01 13:06:52;;;;;;;3.58;1.86;;;;;;;20.69;50.80;101019.55;;;;-52
2019/06/01 13:09:52;;;;;;;3.45;1.67;;;;;;;20.71;50.83;101022.00;;;;-52
2019/06/01 13:12:52;;;;;;;4.16;1.60;;;;;;;20.72;50.90;101015.97;;;;-52
2019/06/01 13:15:52;;;;;;;3.47;1.80;;;;;;;20.73;50.89;101005.61;;;;-52
2019/06/01 13:18:52;;;;;;;3.55;1.80;;;;;;;20.74;51.00;101002.41;;;;-53
2019/06/01 13:21:52;;;;;;;3.55;1.80;;;;;;;20.75;51.13;101001.89;;;;-52
2019/06/01 13:24:52;;;;;;;5.75;1.91;;;;;;;20.76;51.11;100993.43;;;;-52
2019/06/01 13:27:52;;;;;;;5.07;1.71;;;;;;;20.77;51.15;100990.02;;;;-53
2019/06/01 13:30:52;;;;;;;6.87;2.01;;;;;;;20.77;51.04;100986.44;;;;-55
2019/06/01 13:33:52;;;;;;;5.08;1.91;;;;;;;20.78;51.60;100984.91;;;;-60
2019/06/01 13:36:52;;;;;;;4.44;2.10;;;;;;;20.79;51.28;100984.85;;;;-52
2019/06/01 13:39:52;;;;;;;6.08;2.11;;;;;;;20.79;51.35;100983.91;;;;-52
2019/06/01 13:42:52;;;;;;;6.67;2.01;;;;;;;20.78;51.24;100979.59;;;;-53
2019/06/01 13:45:52;;;;;;;4.80;2.10;;;;;;;20.77;51.32;100970.98;;;;-53
2019/06/01 13:48:52;;;;;;;5.43;2.29;;;;;;;20.77;51.24;100967.12;;;;-52
2019/06/01 13:51:53;;;;;;;5.63;2.19;;;;;;;20.77;51.21;100964.10;;;;-52
2019/06/01 13:54:53;;;;;;;4.74;2.01;;;;;;;20.76;51.12;100954.66;;;;-52
2019/06/01 13:57:52;;;;;;;5.63;2.17;;;;;;;20.74;51.16;100950.98;;;;-53
2019/06/01 14:00:52;;;;;;;5.11;2.05;;;;;;;20.74;51.06;100945.61;;;;-52
2019/06/01 14:03:52;;;;;;;4.16;1.99;;;;;;;20.74;50.99;100948.30;;;;-52
2019/06/01 14:06:52;;;;;;;4.88;2.02;;;;;;;20.74;50.90;100947.34;;;;-53
2019/06/01 14:09:52;;;;;;;4.19;2.05;;;;;;;20.72;50.89;100942.39;;;;-52
2019/06/01 14:12:52;;;;;;;4.99;1.94;;;;;;;20.73;50.86;100941.53;;;;-52
2019/06/01 14:15:52;;;;;;;4.31;1.85;;;;;;;20.73;50.86;100943.44;;;;-52
2019/06/01 14:18:52;;;;;;;5.73;2.33;;;;;;;20.72;50.82;100943.00;;;;-53
2019/06/01 14:21:52;;;;;;;3.44;1.86;;;;;;;20.72;50.81;100935.91;;;;-52
2019/06/01 14:24:52;;;;;;;3.35;1.99;;;;;;;20.71;50.79;100937.63;;;;-52
2019/06/01 14:27:52;;;;;;;2.97;1.90;;;;;;;20.71;50.76;100939.58;;;;-52
2019/06/01 14:30:52;;;;;;;3.52;1.93;;;;;;;20.71;50.72;100936.80;;;;-52
2019/06/01 14:33:52;;;;;;;3.41;2.08;;;;;;;20.70;50.68;100933.73;;;;-52
2019/06/01 14:36:52;;;;;;;4.52;1.90;;;;;;;20.70;50.70;100927.45;;;;-52
2019/06/01 14:39:52;;;;;;;3.79;1.91;;;;;;;20.69;50.66;100920.52;;;;-52
2019/06/01 14:42:52;;;;;;;3.51;1.79;;;;;;;20.70;50.70;100919.91;;;;-52
2019/06/01 14:45:52;;;;;;;4.85;2.01;;;;;;;20.71;50.96;100922.80;;;;-56
2019/06/01 14:48:52;;;;;;;3.49;1.83;;;;;;;20.74;50.92;100913.84;;;;-53
2019/06/01 14:51:52;;;;;;;4.53;1.81;;;;;;;20.74;50.97;100915.36;;;;-53
2019/06/01 14:54:52;;;;;;;4.27;1.95;;;;;;;20.76;50.96;100911.85;;;;-56
2019/06/01 14:57:52;;;;;;;2.39;1.79;;;;;;;20.77;51.07;100912.74;;;;-53
2019/06/01 15:00:52;;;;;;;4.53;1.86;;;;;;;20.78;51.04;100907.92;;;;-52
2019/06/01 15:03:52;;;;;;;3.49;1.81;;;;;;;20.79;51.13;100906.45;;;;-52
2019/06/01 15:06:52;;;;;;;4.26;1.79;;;;;;;20.80;51.06;100905.59;;;;-52
2019/06/01 15:09:52;;;;;;;4.47;1.94;;;;;;;20.81;51.02;100899.30;;;;-53
2019/06/01 15:12:52;;;;;;;2.63;1.86;;;;;;;20.83;51.09;100894.55;;;;-54
2019/06/01 15:15:52;;;;;;;3.54;1.81;;;;;;;20.83;51.06;100893.81;;;;-54
2019/06/01 15:18:52;;;;;;;5.74;2.01;;;;;;;20.84;51.13;100890.23;;;;-52
2019/06/01 15:21:52;;;;;;;2.74;1.76;;;;;;;20.85;51.16;100890.38;;;;-54
2019/06/01 15:24:52;;;;;;;3.86;1.89;;;;;;;20.86;51.23;100889.29;;;;-50
2019/06/01 15:27:52;;;;;;;3.77;1.93;;;;;;;20.86;51.21;100887.11;;;;-48
2019/06/01 15:30:52;;;;;;;7.43;1.93;;;;;;;20.87;51.19;100885.94;;;;-48
2019/06/01 15:33:52;;;;;;;6.34;1.87;;;;;;;20.88;51.19;100883.03;;;;-50
2019/06/01 15:36:52;;;;;;;5.38;1.90;;;;;;;20.88;51.18;100881.39;;;;-51
2019/06/01 15:39:52;;;;;;;3.33;1.79;;;;;;;20.88;51.17;100878.77;;;;-49
2019/06/01 15:42:52;;;;;;;3.20;1.82;;;;;;;20.89;51.17;100878.47;;;;-54
2019/06/01 15:45:52;;;;;;;4.50;1.91;;;;;;;20.90;51.14;100877.67;;;;-54
2019/06/01 15:48:52;;;;;;;6.55;1.90;;;;;;;20.91;51.15;100876.61;;;;-54
2019/06/01 15:51:52;;;;;;;4.57;1.90;;;;;;;20.91;51.24;100872.80;;;;-50
2019/06/01 15:54:52;;;;;;;6.22;1.98;;;;;;;20.91;51.16;100866.47;;;;-53
2019/06/01 15:57:52;;;;;;;4.05;1.81;;;;;;;20.92;51.20;100864.84;;;;-51
2019/06/01 16:00:52;;;;;;;4.15;1.80;;;;;;;20.92;51.21;100862.77;;;;-52
2019/06/01 16:03:52;;;;;;;3.71;1.79;;;;;;;20.94;51.07;100858.72;;;;-50
2019/06/01 16:06:52;;;;;;;10.14;1.94;;;;;;;20.95;51.76;100858.38;;;;-51
2019/06/01 16:09:52;;;;;;;6.75;1.98;;;;;;;20.96;51.35;100858.98;;;;-51
2019/06/01 16:12:52;;;;;;;6.77;1.89;;;;;;;20.96;51.50;100861.56;;;;-52
2019/06/01 16:15:52;;;;;;;5.77;1.90;;;;;;;20.96;51.50;100858.31;;;;-51
2019/06/01 16:18:52;;;;;;;4.15;1.80;;;;;;;20.95;51.51;100859.72;;;;-51
2019/06/01 16:21:52;;;;;;;7.61;2.04;;;;;;;20.96;51.56;100861.77;;;;-52
2019/06/01 16:24:52;;;;;;;4.83;1.72;;;;;;;20.96;51.45;100856.73;;;;-50
2019/06/01 16:27:52;;;;;;;4.02;1.75;;;;;;;20.96;51.45;100855.62;;;;-53
2019/06/01 16:30:52;;;;;;;6.17;1.98;;;;;;;20.97;51.41;100853.98;;;;-51
2019/06/01 16:33:52;;;;;;;6.93;1.83;;;;;;;20.98;51.41;100854.53;;;;-50
2019/06/01 16:36:52;;;;;;;3.92;1.75;;;;;;;20.99;51.35;100854.64;;;;-51
2019/06/01 16:39:52;;;;;;;3.74;1.73;;;;;;;20.99;51.30;100851.29;;;;-49
2019/06/01 16:42:52;;;;;;;5.14;1.79;;;;;;;20.99;51.31;100849.27;;;;-52